createdAt,value
2018-03-11T15:34:32.420Z,6.97
2018-03-11T15:36:59.972Z,5.40
2018-03-11T15:39:27.806Z,7.67
2018-03-11T15:41:55.641Z,13.97
2018-03-11T15:44:23.480Z,7.50
2018-03-11T15:46:51.801Z,7.23
2018-03-11T15:49:19.370Z,12.47
2018-03-11T16:03:37.496Z,25.83
2018-03-11T16:06:05.063Z,11.23
2018-03-11T16:08:32.624Z,12.67
2018-03-11T16:11:01.504Z,17.40
2018-03-11T16:13:29.135Z,11.80
2018-03-11T16:15:57.476Z,14.60
2018-03-11T16:18:25.060Z,17.27
2018-03-11T16:20:53.163Z,9.80
2018-03-11T16:23:20.710Z,9.33
2018-03-11T16:25:48.374Z,19.70
2018-03-11T16:28:15.984Z,9.37
2018-03-11T16:30:43.608Z,9.90
2018-03-11T16:33:11.413Z,9.57
2018-03-11T16:35:39.066Z,10.50
2018-03-11T16:38:06.650Z,11.93
2018-03-11T16:40:34.203Z,26.30
2018-03-11T16:43:01.794Z,33.33
2018-03-11T16:45:29.652Z,29.73
2018-03-11T16:47:57.269Z,19.23
2018-03-11T16:50:24.844Z,11.90
2018-03-11T16:52:52.698Z,24.63
2018-03-11T16:55:20.228Z,16.67
2018-03-11T16:57:48.051Z,14.47
2018-03-11T17:00:16.375Z,30.50
2018-03-11T17:02:44.133Z,10.57
2018-03-11T17:05:11.764Z,5.97
2018-03-11T17:07:39.586Z,8.20
2018-03-11T17:10:07.343Z,6.33
2018-03-11T17:12:34.956Z,5.80
2018-03-11T17:15:03.005Z,6.93
2018-03-11T17:17:30.938Z,11.97
2018-03-11T17:19:59.093Z,10.20
2018-03-11T17:22:27.276Z,11.33
2018-03-11T17:24:54.875Z,8.57
2018-03-11T17:27:22.882Z,14.00
2018-03-11T17:29:50.635Z,14.93
2018-03-11T17:32:18.209Z,6.20
2018-03-11T17:34:46.020Z,5.80
2018-03-11T17:37:13.986Z,11.80
2018-03-11T17:39:41.813Z,5.73
2018-03-11T17:42:09.386Z,8.80
2018-03-11T17:44:37.066Z,6.83
2018-03-11T17:47:04.724Z,7.33
2018-03-11T17:49:32.567Z,8.67
2018-03-11T17:52:00.134Z,7.40
2018-03-11T17:54:27.953Z,7.33
2018-03-11T17:56:55.771Z,18.93
2018-03-11T17:59:23.320Z,37.93
2018-03-11T18:01:50.857Z,52.47
2018-03-11T18:04:18.422Z,51.73
2018-03-11T18:06:45.975Z,37.70
2018-03-11T18:09:13.730Z,26.37
2018-03-11T18:11:41.299Z,16.53
2018-03-11T18:14:08.841Z,14.73
2018-03-11T18:16:36.390Z,29.10
2018-03-11T18:19:03.953Z,32.57
2018-03-11T18:21:31.480Z,41.50
2018-03-11T18:23:59.448Z,31.60
2018-03-11T18:26:27.282Z,18.63
2018-03-11T18:28:54.817Z,9.27
2018-03-11T18:31:22.485Z,11.53
2018-03-11T18:33:50.294Z,7.87
2018-03-11T18:36:17.833Z,19.63
2018-03-11T18:38:45.777Z,20.53
2018-03-11T18:41:13.639Z,11.17
2018-03-11T18:43:41.180Z,19.00
2018-03-11T18:46:08.734Z,26.27
2018-03-11T18:48:36.324Z,30.13
2018-03-11T18:51:04.067Z,27.93
2018-03-11T18:53:31.942Z,25.07
2018-03-11T18:55:59.826Z,14.70
2018-03-11T18:58:27.408Z,28.10
2018-03-11T19:00:54.954Z,69.57
2018-03-11T19:03:22.829Z,16.87
2018-03-11T19:05:50.360Z,35.63
2018-03-11T19:08:17.908Z,121.17
2018-03-11T19:10:45.482Z,82.63
2018-03-11T19:13:13.126Z,140.20
2018-03-11T19:15:40.690Z,35.40
2018-03-11T19:18:08.287Z,51.50
2018-03-11T19:20:36.018Z,47.87
2018-03-11T19:23:04.481Z,54.37
2018-03-11T19:25:32.181Z,63.63
2018-03-11T19:28:00.030Z,51.23
2018-03-11T19:30:27.704Z,41.07
2018-03-11T19:32:55.739Z,33.13
2018-03-11T19:35:23.578Z,35.03
2018-03-11T19:37:51.125Z,32.10
2018-03-11T19:40:19.773Z,41.97
2018-03-11T19:42:47.303Z,42.23
2018-03-11T19:45:15.033Z,32.63
2018-03-11T19:47:43.080Z,34.43
2018-03-11T19:50:12.199Z,11.57
2018-03-11T19:52:40.171Z,11.53
2018-03-11T19:55:08.040Z,19.70
2018-03-11T19:57:35.919Z,9.33
2018-03-11T20:00:03.510Z,6.07
2018-03-11T20:02:31.091Z,10.03
2018-03-11T20:04:59.226Z,12.03
2018-03-11T20:07:26.774Z,14.40
2018-03-11T20:09:54.637Z,14.10
2018-03-11T20:12:22.629Z,17.03
2018-03-11T20:14:50.172Z,17.13
2018-03-11T20:17:17.931Z,12.77
2018-03-11T20:19:45.466Z,22.73
2018-03-11T20:22:13.182Z,15.90
2018-03-11T20:24:41.332Z,4.90
2018-03-11T20:27:09.232Z,13.37
2018-03-11T20:29:37.345Z,7.10
2018-03-11T20:32:04.977Z,9.00
2018-03-11T20:34:33.404Z,7.97
2018-03-11T20:37:01.167Z,9.57
2018-03-11T20:39:28.794Z,5.03
2018-03-11T20:41:57.292Z,10.70
2018-03-11T20:44:25.233Z,26.30
2018-03-11T20:46:52.815Z,6.63
2018-03-11T20:49:20.512Z,7.13
2018-03-11T20:51:48.100Z,8.00
2018-03-11T20:54:15.871Z,7.43
2018-03-11T20:56:43.422Z,7.23
2018-03-11T20:59:11.442Z,11.17
2018-03-11T21:01:39.480Z,27.33
2018-03-11T21:04:08.166Z,79.27
2018-03-11T21:06:37.678Z,45.40
2018-03-11T21:09:06.861Z,29.47
2018-03-11T21:11:35.971Z,62.90
2018-03-11T21:14:03.518Z,49.40
2018-03-11T21:16:31.519Z,139.40
2018-03-11T21:18:59.349Z,53.50
2018-03-11T21:21:26.923Z,46.40
2018-03-11T21:23:54.454Z,36.80
2018-03-11T21:26:22.079Z,36.30
2018-03-11T21:28:50.029Z,62.83
2018-03-11T21:31:17.795Z,51.37
2018-03-11T21:33:45.478Z,62.23
2018-03-11T21:36:13.046Z,46.73
2018-03-11T21:38:41.694Z,53.83
2018-03-11T21:41:09.242Z,58.97
2018-03-11T21:43:36.953Z,92.80
2018-03-11T21:46:04.514Z,127.60
2018-03-11T21:48:32.051Z,80.07
2018-03-11T21:50:59.997Z,66.13
2018-03-11T21:53:27.863Z,118.13
2018-03-11T21:55:56.232Z,62.23
2018-03-11T21:58:24.074Z,45.60
2018-03-11T22:00:52.377Z,35.60
2018-03-11T22:03:20.218Z,29.53
2018-03-11T22:05:49.058Z,11.07
2018-03-11T22:08:16.782Z,14.00
2018-03-11T22:10:45.277Z,14.77
2018-03-11T22:13:13.225Z,6.93
2018-03-11T22:15:40.757Z,6.87
2018-03-11T22:18:09.042Z,10.57
2018-03-11T22:20:37.444Z,13.47
2018-03-11T22:23:04.966Z,18.80
2018-03-11T22:25:32.507Z,16.60
2018-03-11T22:28:00.098Z,14.23
2018-03-11T22:30:28.386Z,14.43
2018-03-11T22:32:56.265Z,19.27
2018-03-11T22:35:23.828Z,19.43
2018-03-11T22:37:51.404Z,15.97
2018-03-11T22:40:18.922Z,12.87
2018-03-11T22:42:46.613Z,33.77
2018-03-11T22:45:14.225Z,22.83
2018-03-11T22:47:41.897Z,10.87
2018-03-11T22:50:09.455Z,4.50
2018-03-11T22:52:37.741Z,6.37
2018-03-11T22:55:05.543Z,40.50
2018-03-11T22:57:33.381Z,4.27
2018-03-11T23:00:00.915Z,3.97
2018-03-11T23:02:29.262Z,4.13
2018-03-11T23:04:57.084Z,4.10
2018-03-11T23:07:24.815Z,4.20
2018-03-11T23:09:52.349Z,5.10
2018-03-11T23:12:20.218Z,6.97
2018-03-11T23:14:47.754Z,4.03
2018-03-11T23:17:15.271Z,3.90
2018-03-11T23:19:42.955Z,3.97
2018-03-11T23:22:10.486Z,4.27
2018-03-11T23:24:38.894Z,3.83
2018-03-11T23:27:06.530Z,6.13
2018-03-11T23:29:34.227Z,3.10
2018-03-11T23:32:01.828Z,3.20
2018-03-11T23:34:29.379Z,4.57
2018-03-11T23:36:57.138Z,5.77
2018-03-11T23:39:24.798Z,6.80
2018-03-11T23:41:53.118Z,5.80
2018-03-11T23:44:20.788Z,4.20
2018-03-11T23:46:48.454Z,6.40
2018-03-11T23:49:16.035Z,3.77
2018-03-11T23:51:43.562Z,5.10
2018-03-11T23:54:11.094Z,5.60
2018-03-11T23:56:39.709Z,3.90
2018-03-11T23:59:07.225Z,5.33
